createdAt,value
2017-05-17T00:08:16.127Z,18.1
2017-05-17T00:18:29.979Z,18.2
2017-05-17T00:28:43.807Z,18.3
2017-05-17T00:38:57.664Z,18.4
2017-05-17T00:49:12.514Z,18.3
2017-05-17T00:59:28.184Z,18.1
2017-05-17T01:09:42.134Z,18
2017-05-17T01:19:56.959Z,17.8
2017-05-17T01:30:12.294Z,17.8
2017-05-17T01:40:26.741Z,17.7
2017-05-17T01:50:42.427Z,17.7
2017-05-17T02:00:57.405Z,17.6
2017-05-17T02:11:12.415Z,17.5
2017-05-17T02:21:27.226Z,17.6
2017-05-17T02:31:42.511Z,17.3
2017-05-17T02:41:56.463Z,17.2
2017-05-17T02:52:11.669Z,17.1
2017-05-17T03:02:26.344Z,16.9
2017-05-17T03:12:41.752Z,16.9
2017-05-17T03:22:56.726Z,16.9
2017-05-17T03:33:11.641Z,17
2017-05-17T03:43:26.551Z,17.2
2017-05-17T03:53:40.619Z,17
2017-05-17T04:03:54.898Z,17
2017-05-17T04:14:09.370Z,17.1
2017-05-17T04:24:24.160Z,17.1
2017-05-17T04:34:39.704Z,17.3
2017-05-17T04:44:55.414Z,17.4
2017-05-17T04:55:10.993Z,17.5
2017-05-17T05:05:26.466Z,17.7
2017-05-17T05:15:40.672Z,17.9
2017-05-17T05:25:56.115Z,18.2
2017-05-17T05:36:10.585Z,18.5
2017-05-17T05:46:25.668Z,18.9
2017-05-17T05:56:41.086Z,19.2
2017-05-17T06:06:55.803Z,19.8
2017-05-17T06:17:11.579Z,20
2017-05-17T06:27:25.687Z,20.3
2017-05-17T06:37:39.656Z,20.4
2017-05-17T06:47:53.787Z,20.9
2017-05-17T06:58:07.904Z,21.3
2017-05-17T07:08:22.673Z,22.5
2017-05-17T07:18:38.507Z,23.4
2017-05-17T07:28:53.983Z,24.3
2017-05-17T07:39:08.373Z,24.2
2017-05-17T07:49:23.864Z,25.5
2017-05-17T07:59:39.088Z,25.4
2017-05-17T08:09:54.904Z,26.6
2017-05-17T08:20:09.899Z,25.8
2017-05-17T08:30:25.341Z,27.6
2017-05-17T08:40:40.828Z,27.7
2017-05-17T08:50:56.751Z,27.1
2017-05-17T09:01:11.345Z,27.7
2017-05-17T09:11:25.926Z,27
2017-05-17T09:21:41.446Z,27.3
2017-05-17T09:31:56.168Z,27.6
2017-05-17T09:42:10.641Z,28.5
2017-05-17T09:52:25.943Z,27.8
2017-05-17T10:02:40.876Z,28.2
2017-05-17T10:12:55.437Z,29.1
2017-05-17T10:23:10.006Z,29
2017-05-17T10:33:24.742Z,30
2017-05-17T10:43:40.228Z,29.6
2017-05-17T10:53:54.731Z,29.2
2017-05-17T11:04:09.404Z,28.6
2017-05-17T11:14:25.324Z,29
2017-05-17T11:24:40.060Z,29.3
2017-05-17T11:34:54.099Z,29.8
2017-05-17T11:45:09.948Z,30.7
2017-05-17T11:55:24.865Z,29.9
2017-05-17T12:05:40.034Z,29.3
2017-05-17T12:15:54.596Z,29.9
2017-05-17T12:26:09.541Z,29.4
2017-05-17T12:36:24.996Z,29.2
2017-05-17T12:46:40.823Z,29.4
2017-05-17T12:56:56.428Z,30.4
2017-05-17T13:07:10.889Z,29.1
2017-05-17T13:17:26.094Z,30.8
2017-05-17T13:27:42.069Z,30.9
2017-05-17T13:37:57.909Z,30.5
2017-05-17T13:48:13.519Z,31
2017-05-17T13:58:29.154Z,30.3
2017-05-17T14:08:43.774Z,30.6
2017-05-17T14:18:58.866Z,30.9
2017-05-17T14:29:14.162Z,30.9
2017-05-17T14:39:28.927Z,31
2017-05-17T14:49:43.140Z,30.6
2017-05-17T14:59:58.598Z,31
2017-05-17T15:10:14.039Z,31
2017-05-17T15:20:29.069Z,31.1
2017-05-17T15:30:44.395Z,30.7
2017-05-17T15:40:59.368Z,30.6
2017-05-17T15:51:13.852Z,30.6
2017-05-17T16:01:29.060Z,30.3
2017-05-17T16:11:44.548Z,30.5
2017-05-17T16:21:59.473Z,30.6
2017-05-17T16:32:14.969Z,29.8
2017-05-17T16:42:30.119Z,30.1
2017-05-17T16:52:44.577Z,30
2017-05-17T17:03:00.475Z,30.1
2017-05-17T17:13:15.489Z,29.4
2017-05-17T17:23:30.844Z,29.4
2017-05-17T17:33:46.423Z,29.3
2017-05-17T17:44:01.418Z,28.6
2017-05-17T17:54:17.282Z,28
2017-05-17T18:04:32.029Z,27.9
2017-05-17T18:14:46.119Z,27.6
2017-05-17T18:25:01.849Z,27.4
2017-05-17T18:35:17.639Z,27.3
2017-05-17T18:45:33.238Z,26.9
2017-05-17T18:55:47.901Z,26.5
2017-05-17T19:06:02.052Z,26.1
2017-05-17T19:16:16.667Z,25.8
2017-05-17T19:26:31.156Z,25.6
2017-05-17T19:36:46.631Z,25.3
2017-05-17T19:47:00.513Z,25.1
2017-05-17T19:57:14.922Z,24.6
2017-05-17T20:07:29.103Z,24.4
2017-05-17T20:17:44.012Z,24.3
2017-05-17T20:27:59.362Z,24
2017-05-17T20:38:14.755Z,23.8
2017-05-17T20:48:29.548Z,23.7
2017-05-17T20:58:45.164Z,23.4
2017-05-17T21:08:59.882Z,23.1
2017-05-17T21:19:14.854Z,22.8
2017-05-17T21:29:28.913Z,22.8
2017-05-17T21:39:44.204Z,22.7
2017-05-17T21:49:59.136Z,22.8
2017-05-17T22:00:14.332Z,22.9
2017-05-17T22:10:29.614Z,22.8
2017-05-17T22:20:44.918Z,22.6
2017-05-17T22:30:59.490Z,22.4
2017-05-17T22:41:13.718Z,22.4
2017-05-17T22:51:28.180Z,22.2
2017-05-17T23:01:43.135Z,21.9
2017-05-17T23:11:58.391Z,21.9
2017-05-17T23:22:12.433Z,21.5
2017-05-17T23:32:27.179Z,21.3
2017-05-17T23:42:41.465Z,21.2
2017-05-17T23:52:56.546Z,21.1
